sensor_id;sensor_type;location;lat;lon;timestamp;P1;durP1;ratioP1;P2;durP2;ratioP2
73816;SDS011;62146;53.232;-1.304;2022-12-08T00:01:10;13.95;;;5.65;;
73816;SDS011;62146;53.232;-1.304;2022-12-08T00:03:38;11.70;;;4.72;;
73816;SDS011;62146;53.232;-1.304;2022-12-08T00:06:05;12.10;;;5.00;;
73816;SDS011;62146;53.232;-1.304;2022-12-08T00:08:51;13.80;;;5.55;;
73816;SDS011;62146;53.232;-1.304;2022-12-08T00:11:36;11.70;;;4.75;;
73816;SDS011;62146;53.232;-1.304;2022-12-08T00:14:04;10.38;;;4.65;;
73816;SDS011;62146;53.232;-1.304;2022-12-08T00:16:31;10.38;;;4.28;;
73816;SDS011;62146;53.232;-1.304;2022-12-08T00:18:57;9.27;;;4.30;;
73816;SDS011;62146;53.232;-1.304;2022-12-08T00:21:24;10.77;;;4.30;;
73816;SDS011;62146;53.232;-1.304;2022-12-08T00:23:53;10.05;;;4.65;;
73816;SDS011;62146;53.232;-1.304;2022-12-08T00:26:20;11.65;;;4.13;;
73816;SDS011;62146;53.232;-1.304;2022-12-08T00:28:47;10.05;;;4.25;;
73816;SDS011;62146;53.232;-1.304;2022-12-08T00:31:13;8.63;;;3.70;;
73816;SDS011;62146;53.232;-1.304;2022-12-08T00:33:40;8.85;;;3.60;;
73816;SDS011;62146;53.232;-1.304;2022-12-08T00:36:10;7.45;;;3.58;;
73816;SDS011;62146;53.232;-1.304;2022-12-08T00:38:39;9.35;;;4.00;;
73816;SDS011;62146;53.232;-1.304;2022-12-08T00:41:07;9.50;;;3.83;;
73816;SDS011;62146;53.232;-1.304;2022-12-08T00:43:39;9.93;;;4.33;;
73816;SDS011;62146;53.232;-1.304;2022-12-08T00:46:05;7.80;;;3.35;;
73816;SDS011;62146;53.232;-1.304;2022-12-08T00:48:32;8.02;;;3.13;;
73816;SDS011;62146;53.232;-1.304;2022-12-08T00:50:59;7.38;;;3.13;;
73816;SDS011;62146;53.232;-1.304;2022-12-08T00:53:26;9.40;;;3.33;;
73816;SDS011;62146;53.232;-1.304;2022-12-08T00:55:52;7.33;;;2.90;;
73816;SDS011;62146;53.232;-1.304;2022-12-08T00:58:19;9.00;;;3.15;;
73816;SDS011;62146;53.232;-1.304;2022-12-08T01:00:45;6.88;;;3.33;;
73816;SDS011;62146;53.232;-1.304;2022-12-08T01:03:12;9.23;;;3.20;;
73816;SDS011;62146;53.232;-1.304;2022-12-08T01:05:39;6.30;;;2.90;;
73816;SDS011;62146;53.232;-1.304;2022-12-08T01:08:05;7.57;;;3.03;;
73816;SDS011;62146;53.232;-1.304;2022-12-08T01:10:34;6.18;;;2.72;;
73816;SDS011;62146;53.232;-1.304;2022-12-08T01:13:01;7.32;;;2.83;;
73816;SDS011;62146;53.232;-1.304;2022-12-08T01:15:28;8.13;;;2.30;;
73816;SDS011;62146;53.232;-1.304;2022-12-08T01:17:55;7.55;;;2.78;;
73816;SDS011;62146;53.232;-1.304;2022-12-08T01:20:21;6.20;;;2.27;;
73816;SDS011;62146;53.232;-1.304;2022-12-08T01:22:48;8.15;;;2.63;;
73816;SDS011;62146;53.232;-1.304;2022-12-08T01:25:14;7.00;;;2.30;;
73816;SDS011;62146;53.232;-1.304;2022-12-08T01:27:41;7.68;;;2.63;;
73816;SDS011;62146;53.232;-1.304;2022-12-08T01:30:09;5.75;;;2.33;;
73816;SDS011;62146;53.232;-1.304;2022-12-08T01:32:37;6.37;;;2.63;;
73816;SDS011;62146;53.232;-1.304;2022-12-08T01:35:03;6.70;;;2.33;;
73816;SDS011;62146;53.232;-1.304;2022-12-08T01:37:30;6.00;;;2.33;;
73816;SDS011;62146;53.232;-1.304;2022-12-08T01:39:56;6.60;;;2.10;;
73816;SDS011;62146;53.232;-1.304;2022-12-08T01:42:23;5.63;;;2.30;;
73816;SDS011;62146;53.232;-1.304;2022-12-08T01:44:54;6.67;;;2.10;;
73816;SDS011;62146;53.232;-1.304;2022-12-08T01:47:23;6.63;;;2.45;;
73816;SDS011;62146;53.232;-1.304;2022-12-08T01:49:55;5.90;;;2.20;;
73816;SDS011;62146;53.232;-1.304;2022-12-08T01:52:31;5.95;;;2.15;;
73816;SDS011;62146;53.232;-1.304;2022-12-08T01:55:22;5.68;;;1.92;;
73816;SDS011;62146;53.232;-1.304;2022-12-08T01:57:59;5.60;;;2.23;;
73816;SDS011;62146;53.232;-1.304;2022-12-08T02:00:31;5.45;;;1.88;;
73816;SDS011;62146;53.232;-1.304;2022-12-08T02:02:58;7.22;;;2.22;;
73816;SDS011;62146;53.232;-1.304;2022-12-08T02:05:31;9.15;;;2.90;;
73816;SDS011;62146;53.232;-1.304;2022-12-08T02:08:00;6.65;;;2.13;;
73816;SDS011;62146;53.232;-1.304;2022-12-08T02:10:33;6.50;;;2.40;;
73816;SDS011;62146;53.232;-1.304;2022-12-08T02:13:02;6.68;;;2.10;;
73816;SDS011;62146;53.232;-1.304;2022-12-08T02:15:34;7.25;;;2.17;;
73816;SDS011;62146;53.232;-1.304;2022-12-08T02:18:30;7.20;;;2.30;;
73816;SDS011;62146;53.232;-1.304;2022-12-08T02:35:25;7.35;;;2.20;;
73816;SDS011;62146;53.232;-1.304;2022-12-08T02:38:26;4.53;;;1.80;;
73816;SDS011;62146;53.232;-1.304;2022-12-08T02:41:16;5.47;;;1.90;;
73816;SDS011;62146;53.232;-1.304;2022-12-08T02:43:45;5.47;;;1.95;;
73816;SDS011;62146;53.232;-1.304;2022-12-08T02:46:21;5.93;;;1.90;;
73816;SDS011;62146;53.232;-1.304;2022-12-08T02:48:54;6.20;;;1.90;;
73816;SDS011;62146;53.232;-1.304;2022-12-08T02:51:21;7.30;;;1.97;;
73816;SDS011;62146;53.232;-1.304;2022-12-08T02:53:47;5.05;;;1.88;;
73816;SDS011;62146;53.232;-1.304;2022-12-08T03:02:05;5.28;;;1.40;;
73816;SDS011;62146;53.232;-1.304;2022-12-08T03:07:33;5.68;;;2.05;;
73816;SDS011;62146;53.232;-1.304;2022-12-08T03:10:12;5.65;;;1.65;;
73816;SDS011;62146;53.232;-1.304;2022-12-08T03:12:48;4.90;;;1.65;;
73816;SDS011;62146;53.232;-1.304;2022-12-08T03:15:19;5.65;;;1.50;;
73816;SDS011;62146;53.232;-1.304;2022-12-08T03:17:50;4.37;;;1.57;;
73816;SDS011;62146;53.232;-1.304;2022-12-08T03:20:22;4.38;;;1.48;;
73816;SDS011;62146;53.232;-1.304;2022-12-08T03:22:51;6.18;;;2.10;;
73816;SDS011;62146;53.232;-1.304;2022-12-08T03:25:21;7.38;;;2.10;;
73816;SDS011;62146;53.232;-1.304;2022-12-08T03:27:50;8.10;;;2.22;;
73816;SDS011;62146;53.232;-1.304;2022-12-08T03:30:18;8.87;;;2.50;;
73816;SDS011;62146;53.232;-1.304;2022-12-08T03:35:29;7.55;;;1.80;;
73816;SDS011;62146;53.232;-1.304;2022-12-08T03:38:09;5.28;;;1.60;;
73816;SDS011;62146;53.232;-1.304;2022-12-08T03:40:37;6.13;;;1.80;;
73816;SDS011;62146;53.232;-1.304;2022-12-08T03:43:04;7.40;;;1.90;;
73816;SDS011;62146;53.232;-1.304;2022-12-08T03:45:31;6.43;;;1.80;;
73816;SDS011;62146;53.232;-1.304;2022-12-08T03:47:58;4.60;;;1.75;;
73816;SDS011;62146;53.232;-1.304;2022-12-08T03:50:24;5.57;;;1.60;;
73816;SDS011;62146;53.232;-1.304;2022-12-08T03:52:51;5.07;;;1.75;;
73816;SDS011;62146;53.232;-1.304;2022-12-08T03:55:18;7.20;;;1.73;;
73816;SDS011;62146;53.232;-1.304;2022-12-08T03:57:46;4.50;;;1.60;;
73816;SDS011;62146;53.232;-1.304;2022-12-08T04:00:14;4.13;;;1.33;;
73816;SDS011;62146;53.232;-1.304;2022-12-08T04:02:42;5.35;;;1.55;;
73816;SDS011;62146;53.232;-1.304;2022-12-08T04:05:09;4.97;;;1.40;;
73816;SDS011;62146;53.232;-1.304;2022-12-08T04:07:35;6.07;;;1.50;;
73816;SDS011;62146;53.232;-1.304;2022-12-08T04:10:02;3.83;;;1.48;;
73816;SDS011;62146;53.232;-1.304;2022-12-08T04:12:30;4.53;;;1.40;;
73816;SDS011;62146;53.232;-1.304;2022-12-08T04:14:57;3.65;;;1.25;;
73816;SDS011;62146;53.232;-1.304;2022-12-08T04:17:23;4.20;;;1.42;;
73816;SDS011;62146;53.232;-1.304;2022-12-08T04:19:50;5.03;;;1.50;;
73816;SDS011;62146;53.232;-1.304;2022-12-08T04:22:16;3.80;;;1.48;;
73816;SDS011;62146;53.232;-1.304;2022-12-08T04:24:43;4.45;;;1.48;;
73816;SDS011;62146;53.232;-1.304;2022-12-08T04:27:09;4.18;;;1.20;;
73816;SDS011;62146;53.232;-1.304;2022-12-08T04:29:36;3.72;;;1.30;;
73816;SDS011;62146;53.232;-1.304;2022-12-08T04:32:02;3.30;;;1.30;;
73816;SDS011;62146;53.232;-1.304;2022-12-08T04:34:29;3.15;;;1.10;;
73816;SDS011;62146;53.232;-1.304;2022-12-08T04:36:56;3.63;;;1.30;;
73816;SDS011;62146;53.232;-1.304;2022-12-08T04:39:22;3.55;;;1.05;;
73816;SDS011;62146;53.232;-1.304;2022-12-08T04:41:49;3.65;;;1.30;;
73816;SDS011;62146;53.232;-1.304;2022-12-08T04:44:15;2.80;;;1.30;;
73816;SDS011;62146;53.232;-1.304;2022-12-08T04:46:42;3.67;;;1.33;;
73816;SDS011;62146;53.232;-1.304;2022-12-08T04:49:09;3.90;;;1.27;;
73816;SDS011;62146;53.232;-1.304;2022-12-08T04:51:35;3.95;;;1.17;;
73816;SDS011;62146;53.232;-1.304;2022-12-08T04:54:02;4.47;;;1.40;;
73816;SDS011;62146;53.232;-1.304;2022-12-08T04:56:29;4.27;;;1.10;;
73816;SDS011;62146;53.232;-1.304;2022-12-08T04:58:55;3.97;;;1.67;;
73816;SDS011;62146;53.232;-1.304;2022-12-08T05:01:22;3.80;;;1.27;;
73816;SDS011;62146;53.232;-1.304;2022-12-08T05:03:49;3.60;;;1.25;;
73816;SDS011;62146;53.232;-1.304;2022-12-08T05:06:15;3.20;;;1.20;;
73816;SDS011;62146;53.232;-1.304;2022-12-08T05:08:42;4.63;;;1.27;;
73816;SDS011;62146;53.232;-1.304;2022-12-08T05:11:10;4.18;;;1.23;;
73816;SDS011;62146;53.232;-1.304;2022-12-08T05:13:38;4.43;;;1.50;;
73816;SDS011;62146;53.232;-1.304;2022-12-08T05:16:06;3.47;;;1.23;;
73816;SDS011;62146;53.232;-1.304;2022-12-08T05:18:39;4.47;;;1.25;;
73816;SDS011;62146;53.232;-1.304;2022-12-08T05:21:06;3.43;;;1.10;;
73816;SDS011;62146;53.232;-1.304;2022-12-08T05:23:34;4.97;;;1.55;;
73816;SDS011;62146;53.232;-1.304;2022-12-08T05:26:00;4.20;;;1.70;;
73816;SDS011;62146;53.232;-1.304;2022-12-08T05:28:27;5.50;;;1.77;;
73816;SDS011;62146;53.232;-1.304;2022-12-08T05:31:10;4.05;;;1.35;;
73816;SDS011;62146;53.232;-1.304;2022-12-08T05:33:42;4.60;;;1.70;;
73816;SDS011;62146;53.232;-1.304;2022-12-08T05:36:10;6.18;;;1.98;;
73816;SDS011;62146;53.232;-1.304;2022-12-08T05:38:39;4.05;;;1.50;;
73816;SDS011;62146;53.232;-1.304;2022-12-08T05:41:06;4.60;;;1.92;;
73816;SDS011;62146;53.232;-1.304;2022-12-08T05:43:34;6.07;;;1.98;;
73816;SDS011;62146;53.232;-1.304;2022-12-08T05:46:01;5.00;;;1.70;;
73816;SDS011;62146;53.232;-1.304;2022-12-08T05:48:28;5.13;;;1.60;;
73816;SDS011;62146;53.232;-1.304;2022-12-08T05:50:54;4.97;;;1.70;;
73816;SDS011;62146;53.232;-1.304;2022-12-08T05:53:21;3.42;;;1.30;;
73816;SDS011;62146;53.232;-1.304;2022-12-08T05:55:48;6.60;;;1.88;;
73816;SDS011;62146;53.232;-1.304;2022-12-08T05:58:15;4.73;;;1.40;;
73816;SDS011;62146;53.232;-1.304;2022-12-08T06:00:44;3.97;;;1.40;;
73816;SDS011;62146;53.232;-1.304;2022-12-08T06:03:12;4.75;;;1.90;;
73816;SDS011;62146;53.232;-1.304;2022-12-08T06:05:40;5.05;;;1.50;;
73816;SDS011;62146;53.232;-1.304;2022-12-08T06:08:08;4.20;;;1.35;;
73816;SDS011;62146;53.232;-1.304;2022-12-08T06:10:36;5.73;;;1.67;;
73816;SDS011;62146;53.232;-1.304;2022-12-08T06:13:03;4.90;;;1.67;;
73816;SDS011;62146;53.232;-1.304;2022-12-08T06:15:32;5.30;;;1.50;;
73816;SDS011;62146;53.232;-1.304;2022-12-08T06:18:00;3.63;;;1.50;;
73816;SDS011;62146;53.232;-1.304;2022-12-08T06:20:26;4.10;;;1.40;;
73816;SDS011;62146;53.232;-1.304;2022-12-08T06:22:53;4.90;;;1.40;;
73816;SDS011;62146;53.232;-1.304;2022-12-08T06:25:20;4.25;;;1.25;;
73816;SDS011;62146;53.232;-1.304;2022-12-08T06:27:47;4.38;;;1.50;;
73816;SDS011;62146;53.232;-1.304;2022-12-08T06:30:14;4.43;;;1.30;;
73816;SDS011;62146;53.232;-1.304;2022-12-08T06:32:41;4.20;;;1.55;;
73816;SDS011;62146;53.232;-1.304;2022-12-08T06:35:08;4.20;;;1.57;;
73816;SDS011;62146;53.232;-1.304;2022-12-08T06:37:35;4.55;;;1.40;;
73816;SDS011;62146;53.232;-1.304;2022-12-08T06:40:02;4.72;;;1.50;;
73816;SDS011;62146;53.232;-1.304;2022-12-08T06:42:29;3.92;;;1.40;;
73816;SDS011;62146;53.232;-1.304;2022-12-08T06:45:15;3.45;;;1.25;;
73816;SDS011;62146;53.232;-1.304;2022-12-08T06:47:43;5.33;;;1.40;;
73816;SDS011;62146;53.232;-1.304;2022-12-08T06:50:10;4.57;;;1.50;;
73816;SDS011;62146;53.232;-1.304;2022-12-08T06:52:38;5.60;;;1.77;;
73816;SDS011;62146;53.232;-1.304;2022-12-08T06:55:18;5.53;;;1.42;;
73816;SDS011;62146;53.232;-1.304;2022-12-08T06:58:05;4.45;;;1.60;;
73816;SDS011;62146;53.232;-1.304;2022-12-08T07:00:31;6.63;;;1.90;;
73816;SDS011;62146;53.232;-1.304;2022-12-08T07:02:58;4.78;;;2.00;;
73816;SDS011;62146;53.232;-1.304;2022-12-08T07:05:24;3.63;;;1.40;;
73816;SDS011;62146;53.232;-1.304;2022-12-08T07:07:51;4.78;;;1.60;;
73816;SDS011;62146;53.232;-1.304;2022-12-08T07:10:18;5.70;;;1.77;;
73816;SDS011;62146;53.232;-1.304;2022-12-08T07:12:44;5.90;;;1.97;;
73816;SDS011;62146;53.232;-1.304;2022-12-08T07:15:11;4.80;;;1.90;;
73816;SDS011;62146;53.232;-1.304;2022-12-08T07:17:37;5.55;;;2.20;;
73816;SDS011;62146;53.232;-1.304;2022-12-08T07:20:04;5.10;;;2.30;;
73816;SDS011;62146;53.232;-1.304;2022-12-08T07:22:32;5.63;;;2.10;;
73816;SDS011;62146;53.232;-1.304;2022-12-08T07:24:58;6.70;;;2.40;;
73816;SDS011;62146;53.232;-1.304;2022-12-08T07:27:25;6.88;;;2.28;;
73816;SDS011;62146;53.232;-1.304;2022-12-08T07:29:51;6.53;;;2.50;;
73816;SDS011;62146;53.232;-1.304;2022-12-08T07:32:18;6.85;;;2.60;;
73816;SDS011;62146;53.232;-1.304;2022-12-08T07:34:44;6.85;;;2.65;;
73816;SDS011;62146;53.232;-1.304;2022-12-08T07:37:12;4.87;;;2.30;;
73816;SDS011;62146;53.232;-1.304;2022-12-08T07:39:39;5.70;;;2.90;;
73816;SDS011;62146;53.232;-1.304;2022-12-08T07:42:05;5.93;;;2.90;;
73816;SDS011;62146;53.232;-1.304;2022-12-08T07:44:32;7.45;;;3.40;;
73816;SDS011;62146;53.232;-1.304;2022-12-08T07:46:58;8.98;;;3.45;;
73816;SDS011;62146;53.232;-1.304;2022-12-08T07:49:25;7.43;;;3.67;;
73816;SDS011;62146;53.232;-1.304;2022-12-08T07:51:51;8.43;;;3.40;;
73816;SDS011;62146;53.232;-1.304;2022-12-08T07:54:18;8.35;;;3.30;;
73816;SDS011;62146;53.232;-1.304;2022-12-08T07:56:44;6.82;;;3.38;;
73816;SDS011;62146;53.232;-1.304;2022-12-08T07:59:11;7.82;;;3.17;;
73816;SDS011;62146;53.232;-1.304;2022-12-08T08:01:37;7.80;;;2.97;;
73816;SDS011;62146;53.232;-1.304;2022-12-08T08:04:05;8.45;;;3.25;;
73816;SDS011;62146;53.232;-1.304;2022-12-08T08:06:32;9.38;;;3.53;;
73816;SDS011;62146;53.232;-1.304;2022-12-08T08:08:59;9.68;;;3.90;;
73816;SDS011;62146;53.232;-1.304;2022-12-08T08:11:26;8.88;;;3.97;;
73816;SDS011;62146;53.232;-1.304;2022-12-08T08:13:52;10.13;;;3.63;;
73816;SDS011;62146;53.232;-1.304;2022-12-08T08:16:19;10.18;;;3.88;;
73816;SDS011;62146;53.232;-1.304;2022-12-08T08:18:47;10.13;;;4.20;;
73816;SDS011;62146;53.232;-1.304;2022-12-08T08:21:15;10.57;;;4.28;;
73816;SDS011;62146;53.232;-1.304;2022-12-08T08:24:03;10.18;;;4.18;;
73816;SDS011;62146;53.232;-1.304;2022-12-08T08:26:30;10.37;;;3.93;;
73816;SDS011;62146;53.232;-1.304;2022-12-08T08:28:56;9.70;;;4.13;;
73816;SDS011;62146;53.232;-1.304;2022-12-08T08:31:23;10.60;;;4.53;;
73816;SDS011;62146;53.232;-1.304;2022-12-08T08:33:51;10.68;;;4.60;;
73816;SDS011;62146;53.232;-1.304;2022-12-08T08:36:18;10.93;;;4.85;;
73816;SDS011;62146;53.232;-1.304;2022-12-08T08:38:45;10.03;;;4.30;;
73816;SDS011;62146;53.232;-1.304;2022-12-08T08:41:11;12.35;;;4.40;;
73816;SDS011;62146;53.232;-1.304;2022-12-08T08:43:38;11.07;;;4.50;;
73816;SDS011;62146;53.232;-1.304;2022-12-08T08:46:05;9.00;;;3.75;;
73816;SDS011;62146;53.232;-1.304;2022-12-08T08:48:32;9.65;;;4.38;;
73816;SDS011;62146;53.232;-1.304;2022-12-08T08:51:05;10.10;;;4.10;;
73816;SDS011;62146;53.232;-1.304;2022-12-08T08:53:35;9.30;;;4.00;;
73816;SDS011;62146;53.232;-1.304;2022-12-08T08:56:04;8.77;;;3.92;;
73816;SDS011;62146;53.232;-1.304;2022-12-08T08:58:36;10.13;;;4.10;;
73816;SDS011;62146;53.232;-1.304;2022-12-08T09:01:03;10.82;;;4.10;;
73816;SDS011;62146;53.232;-1.304;2022-12-08T09:03:30;9.20;;;4.03;;
73816;SDS011;62146;53.232;-1.304;2022-12-08T09:05:56;8.52;;;3.72;;
73816;SDS011;62146;53.232;-1.304;2022-12-08T09:08:23;8.40;;;3.90;;
73816;SDS011;62146;53.232;-1.304;2022-12-08T09:10:50;11.05;;;3.97;;
73816;SDS011;62146;53.232;-1.304;2022-12-08T09:13:16;8.82;;;4.25;;
73816;SDS011;62146;53.232;-1.304;2022-12-08T09:15:43;7.73;;;3.83;;
73816;SDS011;62146;53.232;-1.304;2022-12-08T09:18:10;9.38;;;3.80;;
73816;SDS011;62146;53.232;-1.304;2022-12-08T09:20:37;7.55;;;3.80;;
73816;SDS011;62146;53.232;-1.304;2022-12-08T09:23:03;9.25;;;4.20;;
73816;SDS011;62146;53.232;-1.304;2022-12-08T09:25:30;10.43;;;4.50;;
73816;SDS011;62146;53.232;-1.304;2022-12-08T09:27:56;9.37;;;3.73;;
73816;SDS011;62146;53.232;-1.304;2022-12-08T09:30:23;10.05;;;4.05;;
73816;SDS011;62146;53.232;-1.304;2022-12-08T09:32:49;10.02;;;4.20;;
73816;SDS011;62146;53.232;-1.304;2022-12-08T09:35:16;8.70;;;3.97;;
73816;SDS011;62146;53.232;-1.304;2022-12-08T09:37:45;8.00;;;3.88;;
73816;SDS011;62146;53.232;-1.304;2022-12-08T09:40:15;9.77;;;3.37;;
73816;SDS011;62146;53.232;-1.304;2022-12-08T09:42:55;8.00;;;3.53;;
73816;SDS011;62146;53.232;-1.304;2022-12-08T09:45:32;8.13;;;3.70;;
73816;SDS011;62146;53.232;-1.304;2022-12-08T09:50:53;7.32;;;3.28;;
73816;SDS011;62146;53.232;-1.304;2022-12-08T09:53:22;7.33;;;3.53;;
73816;SDS011;62146;53.232;-1.304;2022-12-08T09:56:34;8.25;;;3.30;;
73816;SDS011;62146;53.232;-1.304;2022-12-08T09:59:20;7.20;;;3.00;;
73816;SDS011;62146;53.232;-1.304;2022-12-08T10:01:49;6.25;;;2.90;;
73816;SDS011;62146;53.232;-1.304;2022-12-08T10:07:03;6.57;;;2.57;;
73816;SDS011;62146;53.232;-1.304;2022-12-08T10:10:12;6.57;;;3.20;;
73816;SDS011;62146;53.232;-1.304;2022-12-08T10:12:59;9.55;;;3.40;;
73816;SDS011;62146;53.232;-1.304;2022-12-08T10:18:24;7.53;;;3.10;;
73816;SDS011;62146;53.232;-1.304;2022-12-08T10:20:53;9.90;;;3.70;;
73816;SDS011;62146;53.232;-1.304;2022-12-08T10:23:34;8.68;;;3.50;;
73816;SDS011;62146;53.232;-1.304;2022-12-08T10:26:05;9.93;;;3.03;;
73816;SDS011;62146;53.232;-1.304;2022-12-08T10:28:37;6.65;;;3.00;;
73816;SDS011;62146;53.232;-1.304;2022-12-08T10:31:17;7.32;;;3.10;;
73816;SDS011;62146;53.232;-1.304;2022-12-08T10:33:51;7.10;;;2.67;;
73816;SDS011;62146;53.232;-1.304;2022-12-08T10:36:49;12.98;;;3.15;;
73816;SDS011;62146;53.232;-1.304;2022-12-08T10:42:10;7.20;;;2.63;;
73816;SDS011;62146;53.232;-1.304;2022-12-08T10:47:28;7.90;;;2.50;;
73816;SDS011;62146;53.232;-1.304;2022-12-08T10:50:20;6.00;;;2.63;;
73816;SDS011;62146;53.232;-1.304;2022-12-08T10:55:40;6.68;;;2.50;;
73816;SDS011;62146;53.232;-1.304;2022-12-08T10:58:31;7.43;;;2.97;;
73816;SDS011;62146;53.232;-1.304;2022-12-08T11:01:19;5.90;;;2.70;;
73816;SDS011;62146;53.232;-1.304;2022-12-08T11:03:50;5.95;;;2.65;;
73816;SDS011;62146;53.232;-1.304;2022-12-08T11:08:55;6.25;;;2.60;;
73816;SDS011;62146;53.232;-1.304;2022-12-08T11:11:36;6.13;;;2.60;;
73816;SDS011;62146;53.232;-1.304;2022-12-08T11:14:12;7.50;;;2.63;;
73816;SDS011;62146;53.232;-1.304;2022-12-08T11:17:02;6.57;;;2.50;;
73816;SDS011;62146;53.232;-1.304;2022-12-08T11:19:35;8.48;;;3.00;;
73816;SDS011;62146;53.232;-1.304;2022-12-08T11:22:19;6.65;;;2.40;;
73816;SDS011;62146;53.232;-1.304;2022-12-08T11:27:33;9.10;;;3.20;;
73816;SDS011;62146;53.232;-1.304;2022-12-08T11:33:00;6.03;;;2.47;;
73816;SDS011;62146;53.232;-1.304;2022-12-08T11:35:39;6.97;;;2.60;;
73816;SDS011;62146;53.232;-1.304;2022-12-08T11:38:15;7.32;;;2.75;;
73816;SDS011;62146;53.232;-1.304;2022-12-08T11:41:08;6.83;;;2.73;;
73816;SDS011;62146;53.232;-1.304;2022-12-08T11:46:13;7.05;;;2.67;;
73816;SDS011;62146;53.232;-1.304;2022-12-08T11:48:53;7.93;;;2.60;;
73816;SDS011;62146;53.232;-1.304;2022-12-08T11:54:30;5.70;;;2.67;;
73816;SDS011;62146;53.232;-1.304;2022-12-08T11:57:01;6.90;;;2.75;;
73816;SDS011;62146;53.232;-1.304;2022-12-08T11:59:43;6.80;;;2.83;;
73816;SDS011;62146;53.232;-1.304;2022-12-08T12:02:16;6.18;;;2.42;;
73816;SDS011;62146;53.232;-1.304;2022-12-08T12:04:53;5.53;;;2.33;;
73816;SDS011;62146;53.232;-1.304;2022-12-08T12:13:17;6.55;;;2.70;;
73816;SDS011;62146;53.232;-1.304;2022-12-08T12:18:49;4.95;;;2.38;;
73816;SDS011;62146;53.232;-1.304;2022-12-08T12:21:33;7.37;;;2.50;;
73816;SDS011;62146;53.232;-1.304;2022-12-08T12:24:05;6.40;;;2.72;;
73816;SDS011;62146;53.232;-1.304;2022-12-08T12:26:36;9.98;;;2.70;;
73816;SDS011;62146;53.232;-1.304;2022-12-08T12:29:05;7.97;;;2.25;;
73816;SDS011;62146;53.232;-1.304;2022-12-08T12:31:41;5.32;;;2.15;;
73816;SDS011;62146;53.232;-1.304;2022-12-08T12:34:20;5.23;;;2.30;;
73816;SDS011;62146;53.232;-1.304;2022-12-08T12:36:50;6.22;;;2.30;;
73816;SDS011;62146;53.232;-1.304;2022-12-08T12:39:21;5.95;;;2.05;;
73816;SDS011;62146;53.232;-1.304;2022-12-08T12:41:56;5.38;;;2.40;;
73816;SDS011;62146;53.232;-1.304;2022-12-08T12:46:58;5.70;;;1.80;;
73816;SDS011;62146;53.232;-1.304;2022-12-08T13:05:07;3.60;;;1.60;;
73816;SDS011;62146;53.232;-1.304;2022-12-08T13:10:22;6.10;;;1.48;;
73816;SDS011;62146;53.232;-1.304;2022-12-08T13:15:38;4.45;;;1.60;;
73816;SDS011;62146;53.232;-1.304;2022-12-08T13:21:15;4.13;;;1.15;;
73816;SDS011;62146;53.232;-1.304;2022-12-08T13:36:54;4.82;;;1.67;;
73816;SDS011;62146;53.232;-1.304;2022-12-08T13:39:30;3.50;;;1.20;;
73816;SDS011;62146;53.232;-1.304;2022-12-08T13:42:11;4.57;;;1.40;;
73816;SDS011;62146;53.232;-1.304;2022-12-08T13:50:57;5.50;;;1.40;;
73816;SDS011;62146;53.232;-1.304;2022-12-08T13:57:23;6.28;;;1.20;;
73816;SDS011;62146;53.232;-1.304;2022-12-08T13:59:55;6.70;;;1.67;;
73816;SDS011;62146;53.232;-1.304;2022-12-08T14:02:26;5.78;;;1.30;;
73816;SDS011;62146;53.232;-1.304;2022-12-08T14:04:58;7.03;;;1.25;;
73816;SDS011;62146;53.232;-1.304;2022-12-08T14:07:45;4.83;;;1.30;;
73816;SDS011;62146;53.232;-1.304;2022-12-08T14:10:15;6.07;;;1.38;;
73816;SDS011;62146;53.232;-1.304;2022-12-08T14:12:45;4.65;;;1.20;;
73816;SDS011;62146;53.232;-1.304;2022-12-08T14:15:17;5.60;;;1.30;;
73816;SDS011;62146;53.232;-1.304;2022-12-08T14:17:51;5.40;;;1.20;;
73816;SDS011;62146;53.232;-1.304;2022-12-08T14:20:27;5.67;;;1.10;;
73816;SDS011;62146;53.232;-1.304;2022-12-08T14:23:18;4.28;;;1.10;;
73816;SDS011;62146;53.232;-1.304;2022-12-08T14:25:46;4.05;;;1.25;;
73816;SDS011;62146;53.232;-1.304;2022-12-08T14:28:15;3.85;;;1.10;;
73816;SDS011;62146;53.232;-1.304;2022-12-08T14:30:43;4.30;;;1.20;;
73816;SDS011;62146;53.232;-1.304;2022-12-08T14:33:14;4.03;;;1.10;;
73816;SDS011;62146;53.232;-1.304;2022-12-08T14:35:48;4.93;;;1.30;;
73816;SDS011;62146;53.232;-1.304;2022-12-08T14:38:17;3.05;;;1.10;;
73816;SDS011;62146;53.232;-1.304;2022-12-08T14:41:05;6.30;;;1.17;;
73816;SDS011;62146;53.232;-1.304;2022-12-08T14:43:33;6.10;;;1.30;;
73816;SDS011;62146;53.232;-1.304;2022-12-08T14:46:04;4.90;;;1.10;;
73816;SDS011;62146;53.232;-1.304;2022-12-08T14:48:44;6.00;;;1.20;;
73816;SDS011;62146;53.232;-1.304;2022-12-08T14:51:17;4.38;;;1.30;;
73816;SDS011;62146;53.232;-1.304;2022-12-08T14:53:53;5.95;;;1.38;;
73816;SDS011;62146;53.232;-1.304;2022-12-08T14:59:11;4.23;;;1.30;;
73816;SDS011;62146;53.232;-1.304;2022-12-08T15:01:45;5.80;;;1.30;;
73816;SDS011;62146;53.232;-1.304;2022-12-08T15:09:33;5.35;;;1.20;;
73816;SDS011;62146;53.232;-1.304;2022-12-08T15:20:39;4.22;;;1.33;;
73816;SDS011;62146;53.232;-1.304;2022-12-08T15:25:54;3.63;;;1.00;;
73816;SDS011;62146;53.232;-1.304;2022-12-08T15:28:23;5.07;;;1.25;;
73816;SDS011;62146;53.232;-1.304;2022-12-08T15:30:55;5.15;;;1.25;;
73816;SDS011;62146;53.232;-1.304;2022-12-08T15:33:25;6.93;;;1.60;;
73816;SDS011;62146;53.232;-1.304;2022-12-08T15:35:55;5.43;;;1.60;;
73816;SDS011;62146;53.232;-1.304;2022-12-08T15:38:23;3.50;;;1.20;;
73816;SDS011;62146;53.232;-1.304;2022-12-08T15:40:52;6.13;;;1.30;;
73816;SDS011;62146;53.232;-1.304;2022-12-08T15:43:19;5.00;;;1.30;;
73816;SDS011;62146;53.232;-1.304;2022-12-08T15:45:46;4.82;;;1.40;;
73816;SDS011;62146;53.232;-1.304;2022-12-08T15:48:25;4.43;;;1.40;;
73816;SDS011;62146;53.232;-1.304;2022-12-08T15:50:53;5.13;;;1.43;;
73816;SDS011;62146;53.232;-1.304;2022-12-08T15:53:21;5.75;;;1.90;;
73816;SDS011;62146;53.232;-1.304;2022-12-08T15:55:48;6.40;;;2.45;;
73816;SDS011;62146;53.232;-1.304;2022-12-08T15:58:37;6.85;;;2.60;;
73816;SDS011;62146;53.232;-1.304;2022-12-08T16:01:22;7.05;;;2.63;;
73816;SDS011;62146;53.232;-1.304;2022-12-08T16:03:49;6.97;;;2.40;;
73816;SDS011;62146;53.232;-1.304;2022-12-08T16:06:35;7.28;;;2.60;;
73816;SDS011;62146;53.232;-1.304;2022-12-08T16:09:25;6.72;;;2.53;;
73816;SDS011;62146;53.232;-1.304;2022-12-08T16:11:52;7.47;;;2.90;;
73816;SDS011;62146;53.232;-1.304;2022-12-08T16:14:39;8.00;;;3.17;;
73816;SDS011;62146;53.232;-1.304;2022-12-08T16:17:27;6.97;;;3.10;;
73816;SDS011;62146;53.232;-1.304;2022-12-08T16:19:54;7.03;;;3.20;;
73816;SDS011;62146;53.232;-1.304;2022-12-08T16:22:22;7.13;;;3.00;;
73816;SDS011;62146;53.232;-1.304;2022-12-08T16:25:11;5.60;;;2.70;;
73816;SDS011;62146;53.232;-1.304;2022-12-08T16:27:45;5.57;;;2.45;;
73816;SDS011;62146;53.232;-1.304;2022-12-08T16:30:32;6.50;;;3.00;;
73816;SDS011;62146;53.232;-1.304;2022-12-08T16:32:59;6.20;;;2.90;;
73816;SDS011;62146;53.232;-1.304;2022-12-08T16:35:26;7.53;;;2.97;;
73816;SDS011;62146;53.232;-1.304;2022-12-08T16:37:52;5.68;;;2.58;;
73816;SDS011;62146;53.232;-1.304;2022-12-08T16:40:19;6.45;;;2.88;;
73816;SDS011;62146;53.232;-1.304;2022-12-08T16:42:46;6.23;;;2.70;;
73816;SDS011;62146;53.232;-1.304;2022-12-08T16:48:08;6.32;;;2.83;;
73816;SDS011;62146;53.232;-1.304;2022-12-08T16:50:32;7.70;;;2.80;;
73816;SDS011;62146;53.232;-1.304;2022-12-08T16:53:01;5.28;;;2.30;;
73816;SDS011;62146;53.232;-1.304;2022-12-08T16:55:28;6.10;;;2.50;;
73816;SDS011;62146;53.232;-1.304;2022-12-08T16:57:54;6.15;;;2.65;;
73816;SDS011;62146;53.232;-1.304;2022-12-08T17:00:25;6.40;;;2.50;;
73816;SDS011;62146;53.232;-1.304;2022-12-08T17:02:53;7.03;;;2.78;;
73816;SDS011;62146;53.232;-1.304;2022-12-08T17:05:22;6.78;;;2.55;;
73816;SDS011;62146;53.232;-1.304;2022-12-08T17:07:50;6.13;;;2.43;;
73816;SDS011;62146;53.232;-1.304;2022-12-08T17:10:19;5.93;;;2.38;;
73816;SDS011;62146;53.232;-1.304;2022-12-08T17:12:48;6.30;;;2.45;;